Two Run, West Virginia
Current Conditions -  °F | °C
As of 6:53 AM on Monday 20 Oct 2014 (Local Time) from KPKB Reporting Station
Clear Clear  
Wind Chill: 42°   Ceiling: Unl
Heat Index: 42°   Visibility: 10mi
Dew Point: 37°   Wind: 3mph
Humidity: 82%   Direction: 140°SE
Pressure: 30.07"   Gusts: NA
Location:  38.9676°N, 81.429°W
Report Text: KPKB 201053Z AUTO 14003KT 10SM CLR 06/03 A3007 RMK AO2 SLP186 T00560028
Loading
Personal Weather Stations






























Interactive Weather Map
Tropical Storm Tracking
New forecast layout! Learn more

10-Day Weather Forecast

Advertisements
Track Severe Weather on mobile